Terminal Aerodrome Forecast
Issued by NWS Sterling, VA

Current Version | Previous Version | Graphics & Text | Print | Product List | Glossary On
Versions: 1 2 3 4 5 6 7 8 9 10 11 12 13 14 15 16 17 18 19 20 21 22 23 24
000
FTUS41 KLWX 262340
TAFDCA
TAF
KDCA 262340Z 2700/2724 21007KT P6SM BKN045
     FM270200 VRB03KT P6SM OVC050
     FM271100 20007KT P6SM BKN015
     FM271300 20008KT P6SM SCT015 BKN110
     FM271600 21009KT 6SM -SHRA BKN080 BKN100
     FM272300 19005KT 6SM -SHRA SCT050 BKN090=

USA.gov is the U.S. government's official web portal to all federal, state and local government web resources and services.